Neki — WDF5694 — position and weather

sailwx.info

Track history (hours):
 
Tides and Currents Weather Stations Pressure Air Temp Water Temp Dewpoint Dewpoint Depression Visibility Wind Speed Wind Dir Waves Ship Positions

Neki

Owner: Noble Marine, LLC, Lighthouse Point, FL. More information available from US FCC via Universal Licensing System and Coast Guard Vessel Documentation Center.

Last reported at 2015-May-20 15:32 UTC. Time now 2015-May-25 03:29 UTC.
Position N 26°16' W 080°05'.

Length 20 m.

Type: Sailing vessel. MMSI: 367466230.

Date/timePositionNaut miles runAvg speedWind from/ knotsBaromVisibWave heightAir tempDewpointWater temp
2015-May-20 15:32N 26°16' W 080°05'2 2.4
2015-May-20 14:33N 26°15' W 080°04'1 1.0
2015-May-20 13:33N 26°15' W 080°03'5 5.3
2015-May-20 12:33N 26°14' W 079°57'6 5.5
2015-May-20 11:30N 26°14' W 079°51'  
2015-May-13 19:16N 26°12' W 079°34'7 6.7
2015-May-13 18:14N 26°13' W 079°42'4 6.5
2015-May-13 17:33N 26°14' W 079°46'6 6.2
2015-May-13 16:32N 26°14' W 079°54'6 6.0
2015-May-13 15:31N 26°15' W 080°00'4 4.1
2015-May-13 14:26N 26°16' W 080°05'0 0.0
2015-May-13 13:29N 26°16' W 080°05'0 0.0
2015-May-13 12:29N 26°16' W 080°05'0 0.0
2015-May-13 10:32N 26°16' W 080°05'0 0.1
2015-May-13 09:17N 26°16' W 080°05'0 0.5
2015-May-13 08:25N 26°16' W 080°05'  
Track history (hours):
 
Tides and Currents Weather Stations Pressure Air Temp Water Temp Dewpoint Dewpoint Depression Visibility Wind Speed Wind Dir Waves Ship Positions

Neki

Owner: Noble Marine, LLC, Lighthouse Point, FL. More information available from US FCC via Universal Licensing System and Coast Guard Vessel Documentation Center.

Last reported at 2015-May-20 15:32 UTC. Time now 2015-May-25 03:29 UTC.
Position N 26°16' W 080°05'.

Length 20 m.

Type: Sailing vessel. MMSI: 367466230.

Date/timePositionNaut miles runAvg speedWind from/ knotsBaromVisibWave heightAir tempDewpointWater temp
2015-May-20 15:32N 26°16' W 080°05'2 2.4
2015-May-20 14:33N 26°15' W 080°04'1 1.0
2015-May-20 13:33N 26°15' W 080°03'5 5.3
2015-May-20 12:33N 26°14' W 079°57'6 5.5
2015-May-20 11:30N 26°14' W 079°51'  
2015-May-13 19:16N 26°12' W 079°34'7 6.7
2015-May-13 18:14N 26°13' W 079°42'4 6.5
2015-May-13 17:33N 26°14' W 079°46'6 6.2
2015-May-13 16:32N 26°14' W 079°54'6 6.0
2015-May-13 15:31N 26°15' W 080°00'4 4.1
2015-May-13 14:26N 26°16' W 080°05'0 0.0
2015-May-13 13:29N 26°16' W 080°05'0 0.0
2015-May-13 12:29N 26°16' W 080°05'0 0.0
2015-May-13 10:32N 26°16' W 080°05'0 0.1
2015-May-13 09:17N 26°16' W 080°05'0 0.5
2015-May-13 08:25N 26°16' W 080°05'  

Dump ship's entire track history